sensor_id;sensor_type;location;lat;lon;timestamp;pressure;altitude;pressure_sealevel;temperature;humidity
42519;BME280;28147;47.520;18.920;2023-02-18T00:00:08;98718.94;;;12.16;63.41
42519;BME280;28147;47.520;18.920;2023-02-18T00:02:35;98725.91;;;12.17;63.69
42519;BME280;28147;47.520;18.920;2023-02-18T00:05:01;98725.91;;;12.17;64.17
42519;BME280;28147;47.520;18.920;2023-02-18T00:07:26;98710.94;;;12.16;64.50
42519;BME280;28147;47.520;18.920;2023-02-18T00:09:52;98713.59;;;12.28;63.85
42519;BME280;28147;47.520;18.920;2023-02-18T00:12:17;98716.13;;;12.23;64.13
42519;BME280;28147;47.520;18.920;2023-02-18T00:14:42;98694.69;;;12.18;64.28
42519;BME280;28147;47.520;18.920;2023-02-18T00:17:08;98710.75;;;12.35;64.65
42519;BME280;28147;47.520;18.920;2023-02-18T00:19:33;98700.94;;;12.24;65.69
42519;BME280;28147;47.520;18.920;2023-02-18T00:21:58;98700.22;;;12.28;65.59
42519;BME280;28147;47.520;18.920;2023-02-18T00:24:24;98704.94;;;12.38;65.66
42519;BME280;28147;47.520;18.920;2023-02-18T00:26:50;98698.03;;;12.25;66.59
42519;BME280;28147;47.520;18.920;2023-02-18T00:29:16;98686.78;;;12.23;66.59
42519;BME280;28147;47.520;18.920;2023-02-18T00:31:42;98705.31;;;12.30;66.80
42519;BME280;28147;47.520;18.920;2023-02-18T00:34:09;98694.44;;;12.31;66.80
42519;BME280;28147;47.520;18.920;2023-02-18T00:36:34;98682.09;;;12.30;66.89
42519;BME280;28147;47.520;18.920;2023-02-18T00:39:02;98686.50;;;12.36;66.98
42519;BME280;28147;47.520;18.920;2023-02-18T00:41:28;98680.59;;;12.34;67.23
42519;BME280;28147;47.520;18.920;2023-02-18T00:43:54;98687.25;;;12.49;66.69
42519;BME280;28147;47.520;18.920;2023-02-18T00:46:21;98694.38;;;12.43;66.98
42519;BME280;28147;47.520;18.920;2023-02-18T00:48:46;98685.34;;;12.61;66.27
42519;BME280;28147;47.520;18.920;2023-02-18T00:51:12;98682.81;;;12.26;67.35
42519;BME280;28147;47.520;18.920;2023-02-18T00:53:38;98684.84;;;12.47;66.79
42519;BME280;28147;47.520;18.920;2023-02-18T00:56:04;98676.06;;;12.63;66.19
42519;BME280;28147;47.520;18.920;2023-02-18T00:58:30;98680.97;;;12.55;66.75
42519;BME280;28147;47.520;18.920;2023-02-18T01:00:56;98675.50;;;12.61;66.65
42519;BME280;28147;47.520;18.920;2023-02-18T01:03:22;98661.47;;;12.54;66.74
42519;BME280;28147;47.520;18.920;2023-02-18T01:05:48;98674.44;;;12.62;66.40
42519;BME280;28147;47.520;18.920;2023-02-18T01:08:15;98671.31;;;12.82;65.81
42519;BME280;28147;47.520;18.920;2023-02-18T01:10:44;98659.97;;;12.75;65.99
42519;BME280;28147;47.520;18.920;2023-02-18T01:13:10;98664.59;;;12.80;65.90
42519;BME280;28147;47.520;18.920;2023-02-18T01:15:37;98649.13;;;12.82;65.54
42519;BME280;28147;47.520;18.920;2023-02-18T01:18:03;98657.81;;;12.89;65.47
42519;BME280;28147;47.520;18.920;2023-02-18T01:20:29;98645.19;;;12.84;65.28
42519;BME280;28147;47.520;18.920;2023-02-18T01:22:54;98661.22;;;12.84;65.48
42519;BME280;28147;47.520;18.920;2023-02-18T01:25:20;98663.56;;;12.98;64.94
42519;BME280;28147;47.520;18.920;2023-02-18T01:27:45;98660.22;;;12.90;65.10
42519;BME280;28147;47.520;18.920;2023-02-18T01:30:13;98644.91;;;13.03;64.83
42519;BME280;28147;47.520;18.920;2023-02-18T01:32:39;98645.00;;;12.91;65.07
42519;BME280;28147;47.520;18.920;2023-02-18T01:35:06;98645.25;;;12.89;65.20
42519;BME280;28147;47.520;18.920;2023-02-18T01:37:31;98630.50;;;12.87;64.76
42519;BME280;28147;47.520;18.920;2023-02-18T01:39:57;98638.69;;;12.97;64.75
42519;BME280;28147;47.520;18.920;2023-02-18T01:42:25;98626.94;;;12.98;64.66
42519;BME280;28147;47.520;18.920;2023-02-18T01:44:51;98645.34;;;13.11;64.14
42519;BME280;28147;47.520;18.920;2023-02-18T01:47:17;98628.81;;;12.98;64.44
42519;BME280;28147;47.520;18.920;2023-02-18T01:49:46;98634.00;;;13.04;64.17
42519;BME280;28147;47.520;18.920;2023-02-18T01:52:31;98612.69;;;13.09;63.87
42519;BME280;28147;47.520;18.920;2023-02-18T01:54:57;98641.59;;;13.12;63.78
42519;BME280;28147;47.520;18.920;2023-02-18T01:57:28;98626.31;;;13.25;63.26
42519;BME280;28147;47.520;18.920;2023-02-18T01:59:57;98622.34;;;13.27;63.10
42519;BME280;28147;47.520;18.920;2023-02-18T02:02:26;98626.41;;;13.30;63.05
42519;BME280;28147;47.520;18.920;2023-02-18T02:04:52;98634.00;;;13.38;62.68
42519;BME280;28147;47.520;18.920;2023-02-18T02:07:20;98624.84;;;13.17;63.01
42519;BME280;28147;47.520;18.920;2023-02-18T02:09:47;98605.91;;;13.19;63.25
42519;BME280;28147;47.520;18.920;2023-02-18T02:28:43;98601.66;;;13.39;61.94
42519;BME280;28147;47.520;18.920;2023-02-18T02:39:21;98608.94;;;13.44;61.83
42519;BME280;28147;47.520;18.920;2023-02-18T02:44:23;98593.16;;;13.43;61.90
42519;BME280;28147;47.520;18.920;2023-02-18T02:47:01;98594.22;;;13.42;61.91
42519;BME280;28147;47.520;18.920;2023-02-18T02:49:46;98598.97;;;13.39;61.66
42519;BME280;28147;47.520;18.920;2023-02-18T02:52:19;98613.56;;;13.49;61.42
42519;BME280;28147;47.520;18.920;2023-02-18T02:54:46;98610.47;;;13.57;61.11
42519;BME280;28147;47.520;18.920;2023-02-18T02:59:42;98610.91;;;13.49;61.31
42519;BME280;28147;47.520;18.920;2023-02-18T03:08:03;98621.66;;;13.54;61.28
42519;BME280;28147;47.520;18.920;2023-02-18T03:16:12;98631.13;;;13.61;60.82
42519;BME280;28147;47.520;18.920;2023-02-18T03:21:18;98627.84;;;13.59;60.85
42519;BME280;28147;47.520;18.920;2023-02-18T03:23:55;98636.19;;;13.63;61.09
42519;BME280;28147;47.520;18.920;2023-02-18T03:26:23;98628.19;;;13.63;61.12
42519;BME280;28147;47.520;18.920;2023-02-18T03:28:52;98627.53;;;13.56;61.37
42519;BME280;28147;47.520;18.920;2023-02-18T03:31:20;98625.00;;;13.66;61.12
42519;BME280;28147;47.520;18.920;2023-02-18T03:33:56;98633.53;;;13.63;61.12
42519;BME280;28147;47.520;18.920;2023-02-18T03:36:25;98633.22;;;13.59;61.35
42519;BME280;28147;47.520;18.920;2023-02-18T03:39:03;98628.44;;;13.61;61.17
42519;BME280;28147;47.520;18.920;2023-02-18T03:41:29;98628.69;;;13.60;61.48
42519;BME280;28147;47.520;18.920;2023-02-18T03:44:00;98628.22;;;13.46;61.60
42519;BME280;28147;47.520;18.920;2023-02-18T03:46:27;98640.72;;;13.41;61.96
42519;BME280;28147;47.520;18.920;2023-02-18T03:48:53;98628.72;;;13.43;61.69
42519;BME280;28147;47.520;18.920;2023-02-18T03:51:19;98639.31;;;13.55;61.54
42519;BME280;28147;47.520;18.920;2023-02-18T03:53:45;98629.03;;;13.47;61.82
42519;BME280;28147;47.520;18.920;2023-02-18T03:56:10;98638.66;;;13.48;61.88
42519;BME280;28147;47.520;18.920;2023-02-18T03:58:36;98632.78;;;13.46;61.78
42519;BME280;28147;47.520;18.920;2023-02-18T04:01:01;98643.38;;;13.41;62.02
42519;BME280;28147;47.520;18.920;2023-02-18T04:03:27;98645.09;;;13.47;61.83
42519;BME280;28147;47.520;18.920;2023-02-18T04:05:52;98660.28;;;13.63;61.59
42519;BME280;28147;47.520;18.920;2023-02-18T04:08:18;98672.38;;;13.66;61.37
42519;BME280;28147;47.520;18.920;2023-02-18T04:10:43;98662.16;;;13.62;61.70
42519;BME280;28147;47.520;18.920;2023-02-18T04:13:08;98655.94;;;13.40;62.52
42519;BME280;28147;47.520;18.920;2023-02-18T04:15:34;98655.88;;;13.35;62.83
42519;BME280;28147;47.520;18.920;2023-02-18T04:17:59;98664.28;;;13.44;62.52
42519;BME280;28147;47.520;18.920;2023-02-18T04:20:25;98663.47;;;13.60;61.78
42519;BME280;28147;47.520;18.920;2023-02-18T04:22:50;98654.72;;;13.48;62.46
42519;BME280;28147;47.520;18.920;2023-02-18T04:25:16;98673.16;;;13.27;63.19
42519;BME280;28147;47.520;18.920;2023-02-18T04:27:41;98688.84;;;13.41;62.90
42519;BME280;28147;47.520;18.920;2023-02-18T04:30:07;98674.50;;;13.47;62.84
42519;BME280;28147;47.520;18.920;2023-02-18T04:32:32;98682.63;;;13.35;63.06
42519;BME280;28147;47.520;18.920;2023-02-18T04:34:58;98681.00;;;13.34;62.95
42519;BME280;28147;47.520;18.920;2023-02-18T04:37:23;98685.03;;;13.36;63.25
42519;BME280;28147;47.520;18.920;2023-02-18T04:39:49;98685.03;;;13.36;63.01
42519;BME280;28147;47.520;18.920;2023-02-18T04:42:14;98683.81;;;13.44;62.78
42519;BME280;28147;47.520;18.920;2023-02-18T04:44:40;98679.19;;;13.23;63.82
42519;BME280;28147;47.520;18.920;2023-02-18T04:47:05;98686.03;;;13.30;64.30
42519;BME280;28147;47.520;18.920;2023-02-18T04:49:31;98686.41;;;13.22;65.14
42519;BME280;28147;47.520;18.920;2023-02-18T04:51:57;98677.44;;;13.28;65.16
42519;BME280;28147;47.520;18.920;2023-02-18T04:54:22;98688.78;;;13.35;65.42
42519;BME280;28147;47.520;18.920;2023-02-18T04:56:48;98683.41;;;13.19;65.91
42519;BME280;28147;47.520;18.920;2023-02-18T04:59:14;98686.25;;;13.29;65.30
42519;BME280;28147;47.520;18.920;2023-02-18T05:01:40;98687.69;;;13.20;65.53
42519;BME280;28147;47.520;18.920;2023-02-18T05:04:05;98691.19;;;13.20;65.79
42519;BME280;28147;47.520;18.920;2023-02-18T05:06:31;98683.63;;;13.17;65.98
42519;BME280;28147;47.520;18.920;2023-02-18T05:08:56;98683.31;;;13.13;65.97
42519;BME280;28147;47.520;18.920;2023-02-18T05:11:22;98682.28;;;13.14;66.22
42519;BME280;28147;47.520;18.920;2023-02-18T05:13:47;98695.22;;;13.06;66.09
42519;BME280;28147;47.520;18.920;2023-02-18T05:16:13;98691.34;;;12.97;66.52
42519;BME280;28147;47.520;18.920;2023-02-18T05:18:38;98699.75;;;13.05;66.63
42519;BME280;28147;47.520;18.920;2023-02-18T05:21:04;98703.78;;;12.91;66.76
42519;BME280;28147;47.520;18.920;2023-02-18T05:23:30;98711.91;;;12.96;66.91
42519;BME280;28147;47.520;18.920;2023-02-18T05:25:55;98710.03;;;12.97;66.83
42519;BME280;28147;47.520;18.920;2023-02-18T05:28:20;98706.16;;;13.04;66.62
42519;BME280;28147;47.520;18.920;2023-02-18T05:30:46;98704.13;;;12.95;67.09
42519;BME280;28147;47.520;18.920;2023-02-18T05:33:11;98719.00;;;12.90;67.09
42519;BME280;28147;47.520;18.920;2023-02-18T05:35:37;98725.16;;;12.91;67.48
42519;BME280;28147;47.520;18.920;2023-02-18T05:38:02;98742.50;;;12.88;67.59
42519;BME280;28147;47.520;18.920;2023-02-18T05:40:28;98748.00;;;12.99;67.34
42519;BME280;28147;47.520;18.920;2023-02-18T05:42:53;98741.78;;;12.93;67.61
42519;BME280;28147;47.520;18.920;2023-02-18T05:45:19;98739.63;;;13.07;67.02
42519;BME280;28147;47.520;18.920;2023-02-18T05:47:44;98765.22;;;13.20;66.53
42519;BME280;28147;47.520;18.920;2023-02-18T05:50:09;98753.03;;;13.24;66.31
42519;BME280;28147;47.520;18.920;2023-02-18T05:52:35;98758.53;;;12.88;67.05
42519;BME280;28147;47.520;18.920;2023-02-18T05:55:01;98775.03;;;12.85;66.92
42519;BME280;28147;47.520;18.920;2023-02-18T05:57:26;98763.06;;;12.88;66.42
42519;BME280;28147;47.520;18.920;2023-02-18T05:59:52;98760.22;;;12.95;66.07
42519;BME280;28147;47.520;18.920;2023-02-18T06:02:17;98769.56;;;12.92;65.87
42519;BME280;28147;47.520;18.920;2023-02-18T06:04:42;98778.22;;;12.99;65.50
42519;BME280;28147;47.520;18.920;2023-02-18T06:07:08;98767.69;;;12.93;65.06
42519;BME280;28147;47.520;18.920;2023-02-18T06:09:35;98777.22;;;12.88;65.23
42519;BME280;28147;47.520;18.920;2023-02-18T06:12:00;98772.91;;;12.87;65.28
42519;BME280;28147;47.520;18.920;2023-02-18T06:14:26;98788.00;;;12.94;65.47
42519;BME280;28147;47.520;18.920;2023-02-18T06:16:51;98786.44;;;12.81;65.68
42519;BME280;28147;47.520;18.920;2023-02-18T06:19:17;98788.78;;;12.77;66.17
42519;BME280;28147;47.520;18.920;2023-02-18T06:21:42;98790.00;;;12.86;66.64
42519;BME280;28147;47.520;18.920;2023-02-18T06:24:08;98780.50;;;12.38;68.54
42519;BME280;28147;47.520;18.920;2023-02-18T06:26:33;98795.22;;;12.53;68.87
42519;BME280;28147;47.520;18.920;2023-02-18T06:28:59;98802.66;;;12.62;70.24
42519;BME280;28147;47.520;18.920;2023-02-18T06:31:24;98791.25;;;12.67;70.21
42519;BME280;28147;47.520;18.920;2023-02-18T06:33:49;98791.63;;;12.59;71.42
42519;BME280;28147;47.520;18.920;2023-02-18T06:36:15;98802.19;;;12.65;71.98
42519;BME280;28147;47.520;18.920;2023-02-18T06:38:43;98811.00;;;12.66;72.13
42519;BME280;28147;47.520;18.920;2023-02-18T06:41:10;98802.13;;;12.77;71.56
42519;BME280;28147;47.520;18.920;2023-02-18T06:43:35;98805.09;;;12.93;70.97
42519;BME280;28147;47.520;18.920;2023-02-18T06:46:01;98800.47;;;12.88;70.96
42519;BME280;28147;47.520;18.920;2023-02-18T06:48:27;98803.78;;;12.66;71.76
42519;BME280;28147;47.520;18.920;2023-02-18T06:50:52;98807.56;;;12.82;71.82
42519;BME280;28147;47.520;18.920;2023-02-18T06:53:17;98801.34;;;12.65;72.32
42519;BME280;28147;47.520;18.920;2023-02-18T06:55:43;98807.59;;;12.71;72.30
42519;BME280;28147;47.520;18.920;2023-02-18T06:58:09;98803.53;;;12.68;72.27
42519;BME280;28147;47.520;18.920;2023-02-18T07:00:36;98815.38;;;12.72;72.16
42519;BME280;28147;47.520;18.920;2023-02-18T07:03:01;98810.31;;;12.87;71.59
42519;BME280;28147;47.520;18.920;2023-02-18T07:05:29;98810.75;;;12.68;72.81
42519;BME280;28147;47.520;18.920;2023-02-18T07:07:55;98811.00;;;12.95;71.79
42519;BME280;28147;47.520;18.920;2023-02-18T07:10:20;98804.19;;;12.87;71.72
42519;BME280;28147;47.520;18.920;2023-02-18T07:12:46;98805.31;;;13.20;70.63
42519;BME280;28147;47.520;18.920;2023-02-18T07:15:12;98803.00;;;13.23;70.42
42519;BME280;28147;47.520;18.920;2023-02-18T07:17:37;98813.72;;;13.23;70.21
42519;BME280;28147;47.520;18.920;2023-02-18T07:20:04;98820.53;;;13.31;69.50
42519;BME280;28147;47.520;18.920;2023-02-18T07:22:30;98806.94;;;13.21;70.23
42519;BME280;28147;47.520;18.920;2023-02-18T07:24:55;98791.53;;;13.11;70.08
42519;BME280;28147;47.520;18.920;2023-02-18T07:27:21;98818.56;;;13.26;69.38
42519;BME280;28147;47.520;18.920;2023-02-18T07:29:47;98818.56;;;13.26;69.30
42519;BME280;28147;47.520;18.920;2023-02-18T07:32:15;98810.16;;;13.34;69.01
42519;BME280;28147;47.520;18.920;2023-02-18T07:34:41;98805.06;;;13.21;68.98
42519;BME280;28147;47.520;18.920;2023-02-18T07:37:07;98812.06;;;13.22;68.68
42519;BME280;28147;47.520;18.920;2023-02-18T07:39:40;98814.25;;;13.25;68.77
42519;BME280;28147;47.520;18.920;2023-02-18T07:42:06;98801.69;;;13.26;68.74
42519;BME280;28147;47.520;18.920;2023-02-18T07:44:32;98810.38;;;13.33;68.28
42519;BME280;28147;47.520;18.920;2023-02-18T07:46:58;98803.75;;;13.07;68.88
42519;BME280;28147;47.520;18.920;2023-02-18T07:49:24;98809.72;;;13.26;68.32
42519;BME280;28147;47.520;18.920;2023-02-18T07:51:50;98807.25;;;13.53;67.22
42519;BME280;28147;47.520;18.920;2023-02-18T07:54:16;98805.78;;;13.62;66.81
42519;BME280;28147;47.520;18.920;2023-02-18T07:56:42;98805.50;;;13.75;66.59
42519;BME280;28147;47.520;18.920;2023-02-18T07:59:09;98798.09;;;13.49;67.14
42519;BME280;28147;47.520;18.920;2023-02-18T08:01:34;98806.53;;;13.74;66.35
42519;BME280;28147;47.520;18.920;2023-02-18T08:04:00;98809.38;;;13.68;66.35
42519;BME280;28147;47.520;18.920;2023-02-18T08:06:30;98807.16;;;13.81;65.94
42519;BME280;28147;47.520;18.920;2023-02-18T08:08:57;98807.88;;;13.94;65.09
42519;BME280;28147;47.520;18.920;2023-02-18T08:11:22;98815.91;;;13.94;64.75
42519;BME280;28147;47.520;18.920;2023-02-18T08:13:48;98795.34;;;14.16;64.26
42519;BME280;28147;47.520;18.920;2023-02-18T08:16:15;98815.53;;;14.02;64.82
42519;BME280;28147;47.520;18.920;2023-02-18T08:18:42;98820.94;;;14.07;64.20
42519;BME280;28147;47.520;18.920;2023-02-18T08:21:07;98816.44;;;14.29;63.65
42519;BME280;28147;47.520;18.920;2023-02-18T08:23:33;98817.13;;;14.03;64.39
42519;BME280;28147;47.520;18.920;2023-02-18T08:25:58;98826.09;;;14.30;63.72
42519;BME280;28147;47.520;18.920;2023-02-18T08:28:24;98821.16;;;14.22;63.54
42519;BME280;28147;47.520;18.920;2023-02-18T08:30:51;98815.53;;;14.02;63.84
42519;BME280;28147;47.520;18.920;2023-02-18T08:33:17;98818.41;;;14.17;63.71
42519;BME280;28147;47.520;18.920;2023-02-18T08:35:44;98812.41;;;14.10;63.77
42519;BME280;28147;47.520;18.920;2023-02-18T08:38:10;98809.38;;;14.23;63.50
42519;BME280;28147;47.520;18.920;2023-02-18T08:40:36;98809.56;;;14.17;63.76
42519;BME280;28147;47.520;18.920;2023-02-18T08:43:01;98817.34;;;14.18;63.73
42519;BME280;28147;47.520;18.920;2023-02-18T08:45:27;98802.16;;;14.24;63.42
42519;BME280;28147;47.520;18.920;2023-02-18T08:47:52;98807.41;;;14.35;63.14
42519;BME280;28147;47.520;18.920;2023-02-18T08:50:18;98810.56;;;14.10;63.99
42519;BME280;28147;47.520;18.920;2023-02-18T08:52:45;98808.84;;;14.21;63.46
42519;BME280;28147;47.520;18.920;2023-02-18T08:55:11;98799.88;;;14.32;63.54
42519;BME280;28147;47.520;18.920;2023-02-18T08:57:36;98816.81;;;14.55;63.00
42519;BME280;28147;47.520;18.920;2023-02-18T09:00:02;98815.84;;;14.44;62.98
42519;BME280;28147;47.520;18.920;2023-02-18T09:02:28;98804.44;;;14.54;62.45
42519;BME280;28147;47.520;18.920;2023-02-18T09:04:53;98804.31;;;14.44;62.61
42519;BME280;28147;47.520;18.920;2023-02-18T09:07:18;98801.44;;;14.28;63.33
42519;BME280;28147;47.520;18.920;2023-02-18T09:09:44;98813.97;;;14.06;64.13
42519;BME280;28147;47.520;18.920;2023-02-18T09:12:09;98802.34;;;14.17;63.41
42519;BME280;28147;47.520;18.920;2023-02-18T09:14:35;98802.34;;;14.39;63.20
42519;BME280;28147;47.520;18.920;2023-02-18T09:17:01;98805.03;;;14.17;63.99
42519;BME280;28147;47.520;18.920;2023-02-18T09:19:26;98807.97;;;14.38;63.92
42519;BME280;28147;47.520;18.920;2023-02-18T09:21:52;98792.78;;;14.21;64.14
42519;BME280;28147;47.520;18.920;2023-02-18T09:24:21;98782.53;;;14.18;64.14
42519;BME280;28147;47.520;18.920;2023-02-18T09:26:46;98778.38;;;14.66;63.48
42519;BME280;28147;47.520;18.920;2023-02-18T09:29:11;98788.38;;;15.03;62.51
42519;BME280;28147;47.520;18.920;2023-02-18T09:31:37;98785.25;;;15.38;61.74
42519;BME280;28147;47.520;18.920;2023-02-18T09:34:04;98784.59;;;14.99;62.00
42519;BME280;28147;47.520;18.920;2023-02-18T09:36:31;98799.88;;;14.98;62.73
42519;BME280;28147;47.520;18.920;2023-02-18T09:38:57;98790.19;;;15.19;62.26
42519;BME280;28147;47.520;18.920;2023-02-18T09:44:00;98792.84;;;15.46;60.82
42519;BME280;28147;47.520;18.920;2023-02-18T09:46:38;98791.13;;;15.67;60.39
42519;BME280;28147;47.520;18.920;2023-02-18T09:49:15;98793.00;;;16.04;58.96
42519;BME280;28147;47.520;18.920;2023-02-18T09:51:42;98794.72;;;15.46;59.98
42519;BME280;28147;47.520;18.920;2023-02-18T09:54:10;98796.88;;;15.76;59.85
42519;BME280;28147;47.520;18.920;2023-02-18T09:56:36;98787.84;;;15.60;59.98
42519;BME280;28147;47.520;18.920;2023-02-18T09:59:05;98790.06;;;16.05;59.21
42519;BME280;28147;47.520;18.920;2023-02-18T10:01:37;98790.72;;;15.80;59.60
42519;BME280;28147;47.520;18.920;2023-02-18T10:04:46;98783.28;;;16.45;58.30
42519;BME280;28147;47.520;18.920;2023-02-18T10:07:05;98775.25;;;15.98;58.43
42519;BME280;28147;47.520;18.920;2023-02-18T10:09:36;98775.22;;;15.93;58.18
42519;BME280;28147;47.520;18.920;2023-02-18T10:12:20;98790.16;;;15.78;58.33
42519;BME280;28147;47.520;18.920;2023-02-18T10:14:58;98784.91;;;15.62;58.22
42519;BME280;28147;47.520;18.920;2023-02-18T10:17:31;98783.75;;;16.32;56.41
42519;BME280;28147;47.520;18.920;2023-02-18T10:19:58;98771.31;;;16.16;56.74
42519;BME280;28147;47.520;18.920;2023-02-18T10:22:25;98778.59;;;16.20;56.61
42519;BME280;28147;47.520;18.920;2023-02-18T10:24:59;98777.56;;;16.26;56.69
42519;BME280;28147;47.520;18.920;2023-02-18T10:27:28;98770.38;;;16.47;55.78
42519;BME280;28147;47.520;18.920;2023-02-18T10:35:40;98748.56;;;17.88;52.56
42519;BME280;28147;47.520;18.920;2023-02-18T10:38:30;98764.44;;;17.59;53.52
42519;BME280;28147;47.520;18.920;2023-02-18T10:41:40;98751.25;;;17.27;54.25
42519;BME280;28147;47.520;18.920;2023-02-18T10:50:31;98741.53;;;17.72;53.29
42519;BME280;28147;47.520;18.920;2023-02-18T10:53:02;98735.09;;;17.52;54.13
42519;BME280;28147;47.520;18.920;2023-02-18T10:55:39;98739.16;;;17.81;53.10
42519;BME280;28147;47.520;18.920;2023-02-18T10:58:40;98736.44;;;16.94;55.40
42519;BME280;28147;47.520;18.920;2023-02-18T11:01:13;98744.09;;;16.54;56.67
42519;BME280;28147;47.520;18.920;2023-02-18T11:03:41;98737.63;;;16.45;56.89
42519;BME280;28147;47.520;18.920;2023-02-18T11:06:22;98741.69;;;16.00;57.88
42519;BME280;28147;47.520;18.920;2023-02-18T11:08:49;98732.25;;;15.93;58.58
42519;BME280;28147;47.520;18.920;2023-02-18T11:11:20;98722.53;;;15.87;58.69
42519;BME280;28147;47.520;18.920;2023-02-18T11:13:53;98727.97;;;15.97;58.74
42519;BME280;28147;47.520;18.920;2023-02-18T11:16:21;98721.00;;;15.96;58.95
42519;BME280;28147;47.520;18.920;2023-02-18T11:18:47;98729.06;;;16.01;58.82
42519;BME280;28147;47.520;18.920;2023-02-18T11:21:37;98712.00;;;15.70;60.09
42519;BME280;28147;47.520;18.920;2023-02-18T11:24:14;98710.19;;;16.43;58.59
42519;BME280;28147;47.520;18.920;2023-02-18T11:26:40;98718.16;;;17.01;56.61
42519;BME280;28147;47.520;18.920;2023-02-18T11:29:21;98697.44;;;17.27;55.82
42519;BME280;28147;47.520;18.920;2023-02-18T11:31:50;98693.41;;;16.94;56.86
42519;BME280;28147;47.520;18.920;2023-02-18T11:34:23;98699.09;;;16.19;58.33
42519;BME280;28147;47.520;18.920;2023-02-18T11:36:51;98686.75;;;16.23;58.34
42519;BME280;28147;47.520;18.920;2023-02-18T11:39:25;98674.91;;;16.24;58.57
42519;BME280;28147;47.520;18.920;2023-02-18T11:42:02;98683.59;;;16.42;57.88
42519;BME280;28147;47.520;18.920;2023-02-18T11:44:35;98690.59;;;16.58;58.08
42519;BME280;28147;47.520;18.920;2023-02-18T11:49:40;98674.25;;;17.77;53.90
42519;BME280;28147;47.520;18.920;2023-02-18T11:52:27;98667.22;;;17.86;53.54
42519;BME280;28147;47.520;18.920;2023-02-18T11:55:19;98659.75;;;18.33;52.88
42519;BME280;28147;47.520;18.920;2023-02-18T11:57:49;98641.66;;;17.73;53.40
42519;BME280;28147;47.520;18.920;2023-02-18T12:00:34;98651.94;;;17.51;53.76
42519;BME280;28147;47.520;18.920;2023-02-18T12:03:03;98641.03;;;18.07;51.92
42519;BME280;28147;47.520;18.920;2023-02-18T12:05:32;98631.44;;;17.81;53.44
42519;BME280;28147;47.520;18.920;2023-02-18T12:08:04;98630.38;;;17.56;52.96
42519;BME280;28147;47.520;18.920;2023-02-18T12:13:05;98629.31;;;17.52;52.95
42519;BME280;28147;47.520;18.920;2023-02-18T12:21:39;98622.41;;;16.95;52.47
42519;BME280;28147;47.520;18.920;2023-02-18T12:32:13;98605.94;;;16.66;53.30
42519;BME280;28147;47.520;18.920;2023-02-18T12:37:39;98602.97;;;16.47;52.87
42519;BME280;28147;47.520;18.920;2023-02-18T12:40:21;98596.03;;;16.71;52.35
42519;BME280;28147;47.520;18.920;2023-02-18T12:42:52;98600.78;;;16.28;53.96
42519;BME280;28147;47.520;18.920;2023-02-18T12:59:14;98578.94;;;15.89;54.62
42519;BME280;28147;47.520;18.920;2023-02-18T13:04:57;98559.66;;;16.08;54.17
42519;BME280;28147;47.520;18.920;2023-02-18T13:13:18;98548.19;;;16.48;53.72
42519;BME280;28147;47.520;18.920;2023-02-18T13:15:52;98553.56;;;16.48;53.52
42519;BME280;28147;47.520;18.920;2023-02-18T13:18:38;98549.53;;;16.81;53.31
42519;BME280;28147;47.520;18.920;2023-02-18T13:21:07;98541.72;;;16.64;53.53
42519;BME280;28147;47.520;18.920;2023-02-18T13:23:36;98544.97;;;16.87;52.63
42519;BME280;28147;47.520;18.920;2023-02-18T13:26:05;98527.69;;;17.08;52.82
42519;BME280;28147;47.520;18.920;2023-02-18T13:28:45;98536.38;;;16.90;52.44
42519;BME280;28147;47.520;18.920;2023-02-18T13:31:56;98540.13;;;16.73;52.19
42519;BME280;28147;47.520;18.920;2023-02-18T13:34:21;98528.81;;;16.61;52.44
42519;BME280;28147;47.520;18.920;2023-02-18T13:37:36;98535.81;;;16.72;52.44
42519;BME280;28147;47.520;18.920;2023-02-18T13:39:56;98519.44;;;16.79;52.11
42519;BME280;28147;47.520;18.920;2023-02-18T13:42:26;98513.53;;;16.82;52.40
42519;BME280;28147;47.520;18.920;2023-02-18T13:47:42;98505.97;;;16.43;53.51
42519;BME280;28147;47.520;18.920;2023-02-18T13:50:20;98501.94;;;16.61;52.61
42519;BME280;28147;47.520;18.920;2023-02-18T13:52:56;98505.69;;;16.40;53.56
42519;BME280;28147;47.520;18.920;2023-02-18T13:58:19;98505.69;;;16.40;53.22
42519;BME280;28147;47.520;18.920;2023-02-18T14:00:53;98490.91;;;16.63;53.00
42519;BME280;28147;47.520;18.920;2023-02-18T14:05:58;98457.88;;;16.57;53.89
42519;BME280;28147;47.520;18.920;2023-02-18T14:08:34;98462.72;;;16.40;55.62
42519;BME280;28147;47.520;18.920;2023-02-18T14:13:39;98458.97;;;16.25;55.87
42519;BME280;28147;47.520;18.920;2023-02-18T14:16:08;98435.81;;;16.60;55.33
42519;BME280;28147;47.520;18.920;2023-02-18T14:28:51;98437.19;;;16.27;55.63
42519;BME280;28147;47.520;18.920;2023-02-18T14:31:47;98432.88;;;16.36;55.59
42519;BME280;28147;47.520;18.920;2023-02-18T14:37:04;98429.44;;;16.25;55.88
42519;BME280;28147;47.520;18.920;2023-02-18T14:40:00;98421.88;;;16.48;55.04
42519;BME280;28147;47.520;18.920;2023-02-18T14:45:39;98421.88;;;16.53;54.97
42519;BME280;28147;47.520;18.920;2023-02-18T14:50:49;98408.72;;;16.31;55.98
42519;BME280;28147;47.520;18.920;2023-02-18T14:53:23;98412.75;;;16.39;55.56
42519;BME280;28147;47.520;18.920;2023-02-18T14:55:54;98404.97;;;16.17;55.89
42519;BME280;28147;47.520;18.920;2023-02-18T14:58:29;98396.66;;;16.18;55.85
42519;BME280;28147;47.520;18.920;2023-02-18T15:00:56;98386.97;;;16.22;55.97
42519;BME280;28147;47.520;18.920;2023-02-18T15:03:22;98395.31;;;16.11;56.39
42519;BME280;28147;47.520;18.920;2023-02-18T15:05:50;98403.91;;;16.13;56.38
42519;BME280;28147;47.520;18.920;2023-02-18T15:08:20;98395.31;;;16.11;56.65
42519;BME280;28147;47.520;18.920;2023-02-18T15:11:02;98392.63;;;16.26;56.33